Time;durP1;ratioP1;P1;durP2;ratioP2;P2;SDS_P1;SDS_P2;PMS_P1;PMS_P2;Temp;Humidity;BMP_temperature;BMP_pressure;BME280_temperature;BME280_humidity;BME280_pressure;Samples;Min_cycle;Max_cycle;Signal;HPM_P1;HPM_P2
2023/04/09 00:00:40;;;;;;;28.97;18.27;;;;;;;;;;4943578;28;20611;-66
2023/04/09 00:03:06;;;;;;;30.10;17.17;;;;;;;;;;4941912;28;20273;-67
2023/04/09 00:05:33;;;;;;;31.03;18.13;;;;;;;;;;4940440;28;20486;-67
2023/04/09 00:07:59;;;;;;;33.43;20.30;;;;;;;;;;4941229;28;20234;-67
2023/04/09 00:10:25;;;;;;;35.37;20.13;;;;;;;;;;4944583;28;20611;-66
2023/04/09 00:12:53;;;;;;;32.17;19.67;;;;;;;;;;4942625;28;20222;-67
2023/04/09 00:15:19;;;;;;;30.50;19.57;;;;;;;;;;4945384;28;20206;-66
2023/04/09 00:17:45;;;;;;;35.07;19.67;;;;;;;;;;4941287;28;20218;-66
2023/04/09 00:20:12;;;;;;;37.47;20.43;;;;;;;;;;4941220;28;20203;-66
2023/04/09 00:22:38;;;;;;;34.37;19.17;;;;;;;;;;4941912;28;20202;-67
2023/04/09 00:25:04;;;;;;;33.83;20.60;;;;;;;;;;4944506;28;20699;-67
2023/04/09 00:27:31;;;;;;;37.23;21.37;;;;;;;;;;4941316;28;20226;-67
2023/04/09 00:29:58;;;;;;;33.37;18.87;;;;;;;;;;4942099;28;20333;-67
2023/04/09 00:32:24;;;;;;;35.63;20.23;;;;;;;;;;4942068;28;20209;-67
2023/04/09 00:34:51;;;;;;;35.30;21.23;;;;;;;;;;4937624;28;20574;-67
2023/04/09 00:37:17;;;;;;;36.47;20.70;;;;;;;;;;4941695;28;20235;-67
2023/04/09 00:39:45;;;;;;;34.07;21.17;;;;;;;;;;4944151;28;20520;-67
2023/04/09 00:42:12;;;;;;;35.03;20.97;;;;;;;;;;4945468;28;20329;-65
2023/04/09 00:44:38;;;;;;;36.87;22.37;;;;;;;;;;4946436;28;20465;-67
2023/04/09 00:47:05;;;;;;;37.87;21.67;;;;;;;;;;4941604;28;21167;-67
2023/04/09 00:49:33;;;;;;;34.57;21.20;;;;;;;;;;4941608;28;20238;-66
2023/04/09 00:51:59;;;;;;;37.13;22.43;;;;;;;;;;4940877;28;20214;-66
2023/04/09 00:54:25;;;;;;;35.97;21.80;;;;;;;;;;4940909;28;20673;-66
2023/04/09 00:56:52;;;;;;;34.13;21.03;;;;;;;;;;4940736;28;20589;-67
2023/04/09 00:59:19;;;;;;;41.60;22.60;;;;;;;;;;4937906;28;20210;-67
2023/04/09 01:01:45;;;;;;;47.53;26.10;;;;;;;;;;4956968;28;20235;-66
2023/04/09 01:04:13;;;;;;;39.47;24.43;;;;;;;;;;4934740;28;20301;-67
2023/04/09 01:06:42;;;;;;;41.93;24.93;;;;;;;;;;4956606;28;20230;-67
2023/04/09 01:09:11;;;;;;;47.50;27.20;;;;;;;;;;4954791;28;20544;-66
2023/04/09 01:11:38;;;;;;;58.23;30.93;;;;;;;;;;4941342;28;20288;-67
2023/04/09 01:14:08;;;;;;;58.00;30.37;;;;;;;;;;4939726;28;20213;-66
2023/04/09 01:16:37;;;;;;;58.40;30.60;;;;;;;;;;4942781;28;20340;-67
2023/04/09 01:19:18;;;;;;;62.70;32.67;;;;;;;;;;4936397;28;20565;-69
2023/04/09 01:21:48;;;;;;;54.13;30.90;;;;;;;;;;4952341;28;20462;-69
2023/04/09 01:24:19;;;;;;;56.37;31.63;;;;;;;;;;4942339;28;20217;-69
2023/04/09 01:26:54;;;;;;;61.33;33.27;;;;;;;;;;4940028;28;20942;-68
2023/04/09 01:29:26;;;;;;;59.47;33.93;;;;;;;;;;4940057;28;20462;-69
2023/04/09 01:31:55;;;;;;;67.20;35.57;;;;;;;;;;4931854;28;20991;-67
2023/04/09 01:34:22;;;;;;;68.73;35.50;;;;;;;;;;4933706;28;20476;-68
2023/04/09 01:36:51;;;;;;;61.60;34.93;;;;;;;;;;4935491;28;20237;-68
2023/04/09 01:39:18;;;;;;;76.77;37.47;;;;;;;;;;4936764;28;20206;-68
2023/04/09 01:41:44;;;;;;;61.73;37.70;;;;;;;;;;4945864;28;20788;-68
2023/04/09 01:44:12;;;;;;;59.03;35.73;;;;;;;;;;4940599;28;20476;-68
2023/04/09 01:46:40;;;;;;;63.40;37.20;;;;;;;;;;4941364;28;20224;-67
2023/04/09 01:49:07;;;;;;;62.27;35.60;;;;;;;;;;4934297;28;20215;-66
2023/04/09 01:51:58;;;;;;;57.40;33.70;;;;;;;;;;4941581;28;20217;-68
2023/04/09 01:54:25;;;;;;;62.17;35.47;;;;;;;;;;4939087;28;20728;-68
2023/04/09 01:56:52;;;;;;;63.00;34.93;;;;;;;;;;4938147;28;20344;-67
2023/04/09 01:59:18;;;;;;;68.37;36.93;;;;;;;;;;4939603;28;20462;-68
2023/04/09 02:01:47;;;;;;;67.47;38.00;;;;;;;;;;4937849;28;20870;-67
2023/04/09 02:04:16;;;;;;;70.10;37.90;;;;;;;;;;4935866;28;21040;-68
2023/04/09 02:06:45;;;;;;;66.97;37.73;;;;;;;;;;4939352;28;20580;-68
2023/04/09 02:09:12;;;;;;;66.33;37.77;;;;;;;;;;4938857;28;20210;-67
2023/04/09 02:11:40;;;;;;;63.17;34.43;;;;;;;;;;4943500;28;20474;-67
2023/04/09 02:14:07;;;;;;;64.70;38.70;;;;;;;;;;4941677;28;20798;-68
2023/04/09 02:17:00;;;;;;;68.27;37.17;;;;;;;;;;4942102;28;21065;-68
2023/04/09 02:19:38;;;;;;;77.00;42.80;;;;;;;;;;4933988;28;20563;-68
2023/04/09 02:22:04;;;;;;;83.13;40.93;;;;;;;;;;4936512;28;20222;-67
2023/04/09 02:24:30;;;;;;;79.93;42.13;;;;;;;;;;4935680;28;20465;-68
2023/04/09 02:26:57;;;;;;;81.23;44.73;;;;;;;;;;4936636;28;20880;-67
2023/04/09 02:29:23;;;;;;;91.50;47.47;;;;;;;;;;4951463;28;20501;-67
2023/04/09 02:31:51;;;;;;;85.93;46.10;;;;;;;;;;4931306;28;20501;-66
2023/04/09 02:34:21;;;;;;;83.57;47.00;;;;;;;;;;4937297;28;20614;-69
2023/04/09 02:36:48;;;;;;;87.77;45.07;;;;;;;;;;4943977;28;20942;-67
2023/04/09 02:39:17;;;;;;;87.83;45.87;;;;;;;;;;4944705;28;20501;-66
2023/04/09 02:41:45;;;;;;;95.93;51.13;;;;;;;;;;4947981;28;20450;-67
2023/04/09 02:44:11;;;;;;;100.87;50.87;;;;;;;;;;4934942;28;20232;-68
2023/04/09 02:46:38;;;;;;;105.83;53.47;;;;;;;;;;4943695;28;20573;-68
2023/04/09 02:49:08;;;;;;;107.33;51.83;;;;;;;;;;4939568;28;20483;-67
2023/04/09 02:51:41;;;;;;;88.37;48.80;;;;;;;;;;4942953;28;20495;-68
2023/04/09 02:54:07;;;;;;;92.60;49.17;;;;;;;;;;4942480;28;20529;-67
2023/04/09 02:56:33;;;;;;;111.77;55.50;;;;;;;;;;4940779;28;20223;-68
2023/04/09 02:59:00;;;;;;;102.80;55.73;;;;;;;;;;4957498;28;20242;-68
2023/04/09 03:01:30;;;;;;;97.43;51.87;;;;;;;;;;4943897;28;20470;-68
2023/04/09 03:03:56;;;;;;;96.27;51.30;;;;;;;;;;4937356;28;20199;-67
2023/04/09 03:06:22;;;;;;;92.00;50.83;;;;;;;;;;4943191;28;20230;-68
2023/04/09 03:08:50;;;;;;;106.33;54.67;;;;;;;;;;4945619;28;20465;-69
2023/04/09 03:11:16;;;;;;;93.03;47.63;;;;;;;;;;4944173;28;20495;-67
2023/04/09 03:13:44;;;;;;;100.90;54.50;;;;;;;;;;4945089;28;20479;-67
2023/04/09 03:16:11;;;;;;;101.43;52.00;;;;;;;;;;4958671;28;22049;-68
2023/04/09 03:18:38;;;;;;;106.00;53.70;;;;;;;;;;4942270;28;20222;-67
2023/04/09 03:21:05;;;;;;;95.57;52.70;;;;;;;;;;4940765;28;20465;-67
2023/04/09 03:23:33;;;;;;;94.23;48.70;;;;;;;;;;4942478;28;20470;-67
2023/04/09 03:26:02;;;;;;;94.53;50.47;;;;;;;;;;4942440;28;20470;-68
2023/04/09 03:28:35;;;;;;;91.63;50.37;;;;;;;;;;4941174;28;20916;-67
2023/04/09 03:31:02;;;;;;;100.17;53.73;;;;;;;;;;4946159;28;20538;-67
2023/04/09 03:33:37;;;;;;;111.87;57.23;;;;;;;;;;4945543;28;20471;-67
2023/04/09 03:36:04;;;;;;;105.37;54.00;;;;;;;;;;4936861;28;20503;-68
2023/04/09 03:39:05;;;;;;;99.33;51.37;;;;;;;;;;4939954;28;20473;-67
2023/04/09 03:41:37;;;;;;;101.33;52.40;;;;;;;;;;4959918;28;20472;-67
2023/04/09 03:44:08;;;;;;;101.07;50.43;;;;;;;;;;4935658;28;20465;-68
2023/04/09 03:46:44;;;;;;;96.40;48.90;;;;;;;;;;4942013;28;20487;-67
2023/04/09 03:49:16;;;;;;;101.13;51.90;;;;;;;;;;4939224;28;20755;-67
2023/04/09 03:51:46;;;;;;;88.67;49.97;;;;;;;;;;4941114;28;20484;-68
2023/04/09 03:54:14;;;;;;;89.63;48.20;;;;;;;;;;4956251;28;20473;-67
2023/04/09 03:56:42;;;;;;;90.53;50.47;;;;;;;;;;4941319;28;20490;-67
2023/04/09 03:59:11;;;;;;;113.30;55.10;;;;;;;;;;4945948;28;21106;-67
2023/04/09 04:01:41;;;;;;;105.83;56.03;;;;;;;;;;4944107;28;20466;-68
2023/04/09 04:04:08;;;;;;;99.57;54.87;;;;;;;;;;4939458;28;21248;-68
2023/04/09 04:06:42;;;;;;;109.30;50.03;;;;;;;;;;4938827;28;20223;-67
2023/04/09 04:09:23;;;;;;;97.70;51.30;;;;;;;;;;4941353;28;21052;-67
2023/04/09 04:11:57;;;;;;;102.00;54.30;;;;;;;;;;4942492;28;20498;-67
2023/04/09 04:14:28;;;;;;;96.17;53.83;;;;;;;;;;4939938;28;20472;-67
2023/04/09 04:17:01;;;;;;;103.57;55.43;;;;;;;;;;4945854;28;21097;-68
2023/04/09 04:19:32;;;;;;;103.17;52.10;;;;;;;;;;4964038;28;20978;-67
2023/04/09 04:21:59;;;;;;;110.50;58.03;;;;;;;;;;4960365;28;20465;-68
2023/04/09 04:24:26;;;;;;;94.80;52.90;;;;;;;;;;4942144;28;20967;-68
2023/04/09 04:26:52;;;;;;;102.33;54.90;;;;;;;;;;4944832;28;20522;-68
2023/04/09 04:29:22;;;;;;;102.67;55.20;;;;;;;;;;4946958;28;20458;-67
2023/04/09 04:31:53;;;;;;;112.87;56.90;;;;;;;;;;4951957;28;20478;-67
2023/04/09 04:34:21;;;;;;;111.30;56.90;;;;;;;;;;4955975;28;20820;-67
2023/04/09 04:36:56;;;;;;;110.07;57.77;;;;;;;;;;4942797;28;20503;-67
2023/04/09 04:39:23;;;;;;;115.13;58.37;;;;;;;;;;4960179;28;20469;-67
2023/04/09 04:41:55;;;;;;;117.40;59.27;;;;;;;;;;4947100;28;20466;-68
2023/04/09 04:44:30;;;;;;;121.33;59.23;;;;;;;;;;4960311;28;20501;-68
2023/04/09 04:47:09;;;;;;;124.70;57.80;;;;;;;;;;4960253;28;20272;-68
2023/04/09 04:49:35;;;;;;;127.07;59.43;;;;;;;;;;4937505;28;20480;-67
2023/04/09 04:52:05;;;;;;;108.20;53.43;;;;;;;;;;4936698;28;20484;-67
2023/04/09 04:54:32;;;;;;;111.63;56.87;;;;;;;;;;4945337;28;21748;-68
2023/04/09 04:56:59;;;;;;;117.00;61.10;;;;;;;;;;4940717;28;20480;-67
2023/04/09 04:59:38;;;;;;;114.60;60.83;;;;;;;;;;4948334;28;20459;-67
2023/04/09 05:02:06;;;;;;;106.33;55.23;;;;;;;;;;4941836;28;20525;-68
2023/04/09 05:04:39;;;;;;;102.20;56.97;;;;;;;;;;4949428;28;20571;-68
2023/04/09 05:07:09;;;;;;;118.57;60.83;;;;;;;;;;4982217;23;20504;-70
2023/04/09 05:09:44;;;;;;;118.13;58.93;;;;;;;;;;4964309;28;21063;-70
2023/04/09 05:12:10;;;;;;;107.30;57.87;;;;;;;;;;4981728;28;20493;-70
2023/04/09 05:14:40;;;;;;;108.97;56.77;;;;;;;;;;4977669;28;20810;-70
2023/04/09 05:17:08;;;;;;;108.87;55.10;;;;;;;;;;4958449;28;20998;-70
2023/04/09 05:19:41;;;;;;;106.07;57.57;;;;;;;;;;4950672;28;20460;-70
2023/04/09 05:22:08;;;;;;;107.90;54.30;;;;;;;;;;4962115;28;21038;-71
2023/04/09 05:24:35;;;;;;;108.50;56.10;;;;;;;;;;4959189;28;20210;-70
2023/04/09 05:27:02;;;;;;;109.80;52.87;;;;;;;;;;4959542;28;20485;-70
2023/04/09 05:29:29;;;;;;;95.90;48.57;;;;;;;;;;4956997;28;20468;-70
2023/04/09 05:31:57;;;;;;;87.37;48.30;;;;;;;;;;4954560;28;20261;-70
2023/04/09 05:34:31;;;;;;;106.67;49.87;;;;;;;;;;4955043;28;20465;-70
2023/04/09 05:36:57;;;;;;;117.00;55.63;;;;;;;;;;4961046;28;20492;-70
2023/04/09 05:39:25;;;;;;;110.97;53.03;;;;;;;;;;4960781;28;20213;-70
2023/04/09 05:41:52;;;;;;;103.70;50.63;;;;;;;;;;4956003;28;20547;-70
2023/04/09 05:44:32;;;;;;;108.43;52.00;;;;;;;;;;4971274;28;20981;-70
2023/04/09 05:47:07;;;;;;;106.80;51.83;;;;;;;;;;4958832;28;20240;-70
2023/04/09 05:49:41;;;;;;;96.13;51.50;;;;;;;;;;4955023;28;20598;-70
2023/04/09 05:52:11;;;;;;;101.83;49.67;;;;;;;;;;4957500;28;20249;-70
2023/04/09 05:55:04;;;;;;;106.70;50.73;;;;;;;;;;4955711;28;20315;-70
2023/04/09 05:57:45;;;;;;;101.53;52.17;;;;;;;;;;4951132;28;20253;-70
2023/04/09 06:00:17;;;;;;;112.17;51.70;;;;;;;;;;4965262;28;20221;-70
2023/04/09 06:02:44;;;;;;;83.03;45.80;;;;;;;;;;4951461;28;20210;-70
2023/04/09 06:05:11;;;;;;;107.50;50.60;;;;;;;;;;4945469;28;20209;-70
2023/04/09 06:07:39;;;;;;;108.73;51.57;;;;;;;;;;4947064;28;20369;-71
2023/04/09 06:10:06;;;;;;;103.20;50.10;;;;;;;;;;4953187;28;20280;-70
2023/04/09 06:12:57;;;;;;;100.80;47.10;;;;;;;;;;4952532;28;20382;-70
2023/04/09 06:15:24;;;;;;;93.90;46.40;;;;;;;;;;4948700;28;20218;-70
2023/04/09 06:17:51;;;;;;;101.03;47.27;;;;;;;;;;4955966;28;20226;-72
2023/04/09 06:20:17;;;;;;;106.73;49.40;;;;;;;;;;4942627;28;20206;-71
2023/04/09 06:22:43;;;;;;;100.33;49.90;;;;;;;;;;4953755;28;20205;-70
2023/04/09 06:25:10;;;;;;;118.03;54.73;;;;;;;;;;4954159;28;20236;-70
2023/04/09 06:27:36;;;;;;;115.60;52.53;;;;;;;;;;4956779;28;20862;-70
2023/04/09 06:30:03;;;;;;;99.17;51.10;;;;;;;;;;4952894;28;20214;-70
2023/04/09 06:32:33;;;;;;;119.27;58.00;;;;;;;;;;4956587;28;21174;-70
2023/04/09 06:35:01;;;;;;;111.17;53.53;;;;;;;;;;4956849;28;20202;-70
2023/04/09 06:37:52;;;;;;;106.00;52.73;;;;;;;;;;4950205;28;20766;-70
2023/04/09 06:40:21;;;;;;;97.10;49.77;;;;;;;;;;4957894;28;20285;-70
2023/04/09 06:42:48;;;;;;;103.63;51.43;;;;;;;;;;4954508;28;20202;-70
2023/04/09 06:45:21;;;;;;;105.17;51.43;;;;;;;;;;4957405;28;20203;-70
2023/04/09 06:47:47;;;;;;;109.90;50.50;;;;;;;;;;4946607;28;20325;-70
2023/04/09 06:50:15;;;;;;;106.33;50.87;;;;;;;;;;4942362;28;20214;-71
2023/04/09 06:52:41;;;;;;;103.67;50.20;;;;;;;;;;4956617;28;20229;-70
2023/04/09 06:55:07;;;;;;;104.87;49.50;;;;;;;;;;4951833;28;20208;-71
2023/04/09 06:57:36;;;;;;;106.50;50.80;;;;;;;;;;4948888;28;20253;-70
2023/04/09 07:00:02;;;;;;;102.13;51.23;;;;;;;;;;4958246;28;20240;-70
2023/04/09 07:02:55;;;;;;;107.60;49.77;;;;;;;;;;4955864;28;20222;-70
2023/04/09 07:05:23;;;;;;;98.43;49.17;;;;;;;;;;4954213;28;20750;-70
2023/04/09 07:07:49;;;;;;;100.03;47.50;;;;;;;;;;4956675;28;20999;-71
2023/04/09 07:10:15;;;;;;;92.87;46.90;;;;;;;;;;4952433;28;20589;-71
2023/04/09 07:12:41;;;;;;;98.90;46.20;;;;;;;;;;4962334;28;20224;-70
2023/04/09 07:15:08;;;;;;;95.27;47.30;;;;;;;;;;4954787;28;20667;-71
2023/04/09 07:17:36;;;;;;;87.30;40.97;;;;;;;;;;4960441;28;20742;-70
2023/04/09 07:20:02;;;;;;;94.93;43.27;;;;;;;;;;4958993;28;20572;-70
2023/04/09 07:22:36;;;;;;;87.87;43.03;;;;;;;;;;4954597;28;20197;-71
2023/04/09 07:25:02;;;;;;;89.60;38.97;;;;;;;;;;4949898;28;20210;-70
2023/04/09 07:27:28;;;;;;;86.13;38.13;;;;;;;;;;4953218;28;20654;-70
2023/04/09 07:29:55;;;;;;;87.00;40.33;;;;;;;;;;4952603;28;20681;-71
2023/04/09 07:32:21;;;;;;;87.20;40.03;;;;;;;;;;4941643;28;20719;-71
2023/04/09 07:34:48;;;;;;;82.23;41.03;;;;;;;;;;4944922;28;20202;-71
2023/04/09 07:37:14;;;;;;;88.87;42.67;;;;;;;;;;4941827;28;20242;-71
2023/04/09 07:39:42;;;;;;;88.37;39.90;;;;;;;;;;4954549;28;20221;-70
2023/04/09 07:42:08;;;;;;;91.53;44.30;;;;;;;;;;4952380;28;20596;-71
2023/04/09 07:44:36;;;;;;;86.27;42.73;;;;;;;;;;4948002;28;20217;-71
2023/04/09 07:47:03;;;;;;;92.00;44.90;;;;;;;;;;4957403;28;20240;-71
2023/04/09 07:49:55;;;;;;;91.00;41.57;;;;;;;;;;4948249;28;20261;-71
2023/04/09 07:52:21;;;;;;;89.73;43.17;;;;;;;;;;4947128;28;20699;-71
2023/04/09 07:54:49;;;;;;;97.07;46.87;;;;;;;;;;4953243;28;20217;-71
2023/04/09 07:57:15;;;;;;;89.03;43.87;;;;;;;;;;4956291;28;21492;-71
2023/04/09 07:59:42;;;;;;;90.50;44.57;;;;;;;;;;4952222;28;20200;-71
2023/04/09 08:02:08;;;;;;;91.53;41.87;;;;;;;;;;4945687;28;20680;-71
2023/04/09 08:04:34;;;;;;;81.90;40.73;;;;;;;;;;4949350;28;20229;-71
2023/04/09 08:07:00;;;;;;;71.73;37.17;;;;;;;;;;4959382;28;20233;-71
2023/04/09 08:09:53;;;;;;;74.83;37.80;;;;;;;;;;4953237;28;20217;-71
2023/04/09 08:12:19;;;;;;;63.53;33.93;;;;;;;;;;4954075;28;20230;-71
2023/04/09 08:14:45;;;;;;;65.33;35.33;;;;;;;;;;4946740;28;20293;-71
2023/04/09 08:17:12;;;;;;;58.53;32.23;;;;;;;;;;4953919;28;20240;-71
2023/04/09 08:19:38;;;;;;;52.30;29.87;;;;;;;;;;4947421;28;20209;-71
2023/04/09 08:22:04;;;;;;;48.27;29.67;;;;;;;;;;4957378;28;20209;-71
2023/04/09 08:24:33;;;;;;;46.33;26.40;;;;;;;;;;4957403;28;20199;-71
2023/04/09 08:27:01;;;;;;;39.87;24.57;;;;;;;;;;4956287;28;20230;-71
2023/04/09 08:29:30;;;;;;;33.70;21.33;;;;;;;;;;4950748;28;22057;-70
2023/04/09 08:31:56;;;;;;;31.73;19.17;;;;;;;;;;4953679;28;20807;-71
2023/04/09 08:34:23;;;;;;;31.70;18.93;;;;;;;;;;4952203;28;20542;-71
2023/04/09 08:36:50;;;;;;;26.47;16.23;;;;;;;;;;4948491;28;20231;-71
2023/04/09 08:39:19;;;;;;;29.73;16.97;;;;;;;;;;4955289;28;20213;-71
2023/04/09 08:41:45;;;;;;;21.30;14.07;;;;;;;;;;4950273;28;20210;-72
2023/04/09 08:44:12;;;;;;;23.63;15.07;;;;;;;;;;4956033;28;20696;-71
2023/04/09 08:46:39;;;;;;;26.97;15.87;;;;;;;;;;4953847;28;20210;-71
2023/04/09 08:49:05;;;;;;;28.90;18.37;;;;;;;;;;4946028;28;20212;-71
2023/04/09 08:51:31;;;;;;;28.67;18.07;;;;;;;;;;4950234;28;20449;-71
2023/04/09 08:53:58;;;;;;;27.13;17.33;;;;;;;;;;4943743;28;20820;-71
2023/04/09 08:56:24;;;;;;;25.87;15.57;;;;;;;;;;4948781;28;20343;-71
2023/04/09 08:58:51;;;;;;;23.40;14.13;;;;;;;;;;4949735;28;20216;-72
2023/04/09 09:01:22;;;;;;;19.70;12.53;;;;;;;;;;4953846;28;20214;-71
2023/04/09 09:03:53;;;;;;;22.67;14.93;;;;;;;;;;4949146;28;20205;-72
2023/04/09 09:06:20;;;;;;;24.13;15.30;;;;;;;;;;4951713;28;20329;-72
2023/04/09 09:08:59;;;;;;;26.80;17.20;;;;;;;;;;4955533;28;20209;-72
2023/04/09 09:11:25;;;;;;;26.00;15.53;;;;;;;;;;4967523;28;20201;-72
2023/04/09 09:13:56;;;;;;;22.37;14.20;;;;;;;;;;4957721;28;20226;-72
2023/04/09 09:16:26;;;;;;;25.50;16.37;;;;;;;;;;4958625;28;20207;-72
2023/04/09 09:18:54;;;;;;;28.33;18.50;;;;;;;;;;4953253;28;20300;-72
2023/04/09 09:21:21;;;;;;;24.23;15.80;;;;;;;;;;4959696;28;20209;-72
2023/04/09 09:23:49;;;;;;;23.17;14.27;;;;;;;;;;4960400;28;20730;-72
2023/04/09 09:26:17;;;;;;;26.00;15.60;;;;;;;;;;4960392;28;20213;-72
2023/04/09 09:28:43;;;;;;;24.80;15.30;;;;;;;;;;4955955;28;20236;-72
2023/04/09 09:31:10;;;;;;;23.87;15.83;;;;;;;;;;4953346;28;20216;-72
2023/04/09 09:33:38;;;;;;;23.40;14.30;;;;;;;;;;4953066;28;20233;-72
2023/04/09 09:36:05;;;;;;;21.33;13.17;;;;;;;;;;4957334;28;20696;-72
2023/04/09 09:38:34;;;;;;;22.03;14.03;;;;;;;;;;4958135;28;20411;-72
2023/04/09 09:41:16;;;;;;;24.70;14.90;;;;;;;;;;4963519;28;20210;-72
2023/04/09 09:43:42;;;;;;;19.83;14.27;;;;;;;;;;4959904;28;20206;-72
2023/04/09 09:46:09;;;;;;;19.63;13.27;;;;;;;;;;4962057;28;20209;-72
2023/04/09 09:48:43;;;;;;;21.33;14.30;;;;;;;;;;4958621;28;20230;-72
2023/04/09 09:51:09;;;;;;;18.67;12.23;;;;;;;;;;4954496;28;22624;-72
2023/04/09 09:53:36;;;;;;;19.03;13.23;;;;;;;;;;4958358;28;20226;-72
2023/04/09 09:56:04;;;;;;;21.83;14.27;;;;;;;;;;4960264;28;20639;-72
2023/04/09 09:58:59;;;;;;;19.57;12.93;;;;;;;;;;4953916;28;20639;-72
2023/04/09 10:01:26;;;;;;;23.70;15.07;;;;;;;;;;4951447;28;20701;-72
2023/04/09 10:03:56;;;;;;;21.20;13.50;;;;;;;;;;4954795;28;20210;-72
2023/04/09 10:06:22;;;;;;;21.13;14.40;;;;;;;;;;4949894;28;20230;-71
2023/04/09 10:08:49;;;;;;;19.80;13.20;;;;;;;;;;4945888;28;20221;-70
2023/04/09 10:11:16;;;;;;;20.00;13.50;;;;;;;;;;4954295;28;20318;-72
2023/04/09 10:13:48;;;;;;;21.47;13.87;;;;;;;;;;4956265;28;20263;-72
2023/04/09 10:16:15;;;;;;;21.97;13.77;;;;;;;;;;4954311;28;20217;-73
2023/04/09 10:18:42;;;;;;;20.50;13.40;;;;;;;;;;4958273;28;20232;-72
2023/04/09 10:21:14;;;;;;;22.10;14.67;;;;;;;;;;4956346;28;20217;-71
2023/04/09 10:23:42;;;;;;;21.13;13.37;;;;;;;;;;4956697;28;20215;-72
2023/04/09 10:26:09;;;;;;;20.37;13.37;;;;;;;;;;4958791;28;20739;-72
2023/04/09 10:28:36;;;;;;;20.33;12.53;;;;;;;;;;4951140;28;20230;-72
2023/04/09 10:31:03;;;;;;;19.67;12.20;;;;;;;;;;4955594;28;20216;-72
2023/04/09 10:33:36;;;;;;;19.93;13.30;;;;;;;;;;4960003;28;20823;-72
2023/04/09 10:36:04;;;;;;;20.13;13.20;;;;;;;;;;4953527;28;20747;-72
2023/04/09 10:38:37;;;;;;;21.63;13.10;;;;;;;;;;4953751;28;20309;-72
2023/04/09 10:41:07;;;;;;;19.23;12.17;;;;;;;;;;4953013;28;20685;-71
2023/04/09 10:43:38;;;;;;;19.23;12.23;;;;;;;;;;4946911;28;20209;-72
2023/04/09 10:46:08;;;;;;;20.17;11.67;;;;;;;;;;4938147;28;20229;-72
2023/04/09 10:48:35;;;;;;;19.47;12.07;;;;;;;;;;4947569;28;20313;-72
2023/04/09 10:51:02;;;;;;;17.43;11.20;;;;;;;;;;4942286;28;20225;-72
2023/04/09 10:53:32;;;;;;;16.43;11.60;;;;;;;;;;4949069;28;20257;-72
2023/04/09 10:56:00;;;;;;;15.60;10.40;;;;;;;;;;4954206;28;20584;-72
2023/04/09 10:58:33;;;;;;;18.47;11.80;;;;;;;;;;4948063;28;20236;-72
2023/04/09 11:01:01;;;;;;;15.97;10.87;;;;;;;;;;4948336;28;20211;-72
2023/04/09 11:03:36;;;;;;;15.20;10.40;;;;;;;;;;4951593;28;20768;-72
2023/04/09 11:06:04;;;;;;;15.70;10.37;;;;;;;;;;4945607;28;20206;-72
2023/04/09 11:08:33;;;;;;;17.80;11.20;;;;;;;;;;4945996;28;20264;-69
2023/04/09 11:11:02;;;;;;;17.97;10.93;;;;;;;;;;4944586;28;20576;-70
2023/04/09 11:13:29;;;;;;;15.43;10.50;;;;;;;;;;4944684;28;20234;-70
2023/04/09 11:15:56;;;;;;;14.00;9.90;;;;;;;;;;4945614;28;20229;-70
2023/04/09 11:18:23;;;;;;;14.87;10.57;;;;;;;;;;4943451;28;20490;-70
2023/04/09 11:20:49;;;;;;;16.17;10.60;;;;;;;;;;4950744;28;20202;-70
2023/04/09 11:23:16;;;;;;;15.73;10.13;;;;;;;;;;4955752;28;20568;-69
2023/04/09 11:25:42;;;;;;;14.43;9.80;;;;;;;;;;4944397;28;20202;-70
2023/04/09 11:28:09;;;;;;;18.80;10.30;;;;;;;;;;4973903;28;20355;-70
2023/04/09 11:30:36;;;;;;;17.03;11.00;;;;;;;;;;4960575;28;20439;-70
2023/04/09 11:33:02;;;;;;;14.53;9.43;;;;;;;;;;4960704;28;20284;-70
2023/04/09 11:35:33;;;;;;;13.93;9.63;;;;;;;;;;4953993;28;20213;-69
2023/04/09 11:37:59;;;;;;;12.87;9.40;;;;;;;;;;4966949;28;20234;-70
2023/04/09 11:40:27;;;;;;;15.70;9.80;;;;;;;;;;4965954;28;20209;-70
2023/04/09 11:42:56;;;;;;;12.33;8.27;;;;;;;;;;4956387;28;20237;-69
2023/04/09 11:45:24;;;;;;;17.27;9.67;;;;;;;;;;4951364;28;20205;-70
2023/04/09 11:47:51;;;;;;;13.27;9.50;;;;;;;;;;4962516;28;20595;-70
2023/04/09 11:50:17;;;;;;;14.40;9.57;;;;;;;;;;4956114;28;20214;-69
2023/04/09 11:52:44;;;;;;;15.37;9.30;;;;;;;;;;4961002;28;20205;-70
2023/04/09 11:55:11;;;;;;;15.87;10.57;;;;;;;;;;4958825;28;20603;-70
2023/04/09 11:57:39;;;;;;;15.77;10.23;;;;;;;;;;4959769;28;20603;-69
2023/04/09 12:00:07;;;;;;;12.90;9.20;;;;;;;;;;4962266;28;20217;-70
2023/04/09 12:02:36;;;;;;;14.17;10.17;;;;;;;;;;4958160;28;20259;-70
2023/04/09 12:05:09;;;;;;;16.23;10.90;;;;;;;;;;4953973;28;20210;-69
2023/04/09 12:07:36;;;;;;;18.00;12.07;;;;;;;;;;4957762;28;20234;-70
2023/04/09 12:10:03;;;;;;;16.30;11.00;;;;;;;;;;4961017;28;20677;-69
2023/04/09 12:12:30;;;;;;;15.03;9.90;;;;;;;;;;4957678;28;20665;-71
2023/04/09 12:14:57;;;;;;;15.37;10.17;;;;;;;;;;4956031;28;20473;-70
2023/04/09 12:17:23;;;;;;;14.50;10.07;;;;;;;;;;4950915;28;20709;-70
2023/04/09 12:19:51;;;;;;;14.20;9.63;;;;;;;;;;4955223;28;20673;-70
2023/04/09 12:22:17;;;;;;;12.53;9.13;;;;;;;;;;4961916;28;20216;-70
2023/04/09 12:24:44;;;;;;;14.03;10.00;;;;;;;;;;4953168;28;20210;-69
2023/04/09 12:27:10;;;;;;;15.17;9.87;;;;;;;;;;4945599;28;20501;-70
2023/04/09 12:29:36;;;;;;;14.40;10.33;;;;;;;;;;4951272;28;20217;-70
2023/04/09 12:32:02;;;;;;;16.53;10.23;;;;;;;;;;4954042;28;20218;-70
2023/04/09 12:34:31;;;;;;;12.67;8.07;;;;;;;;;;4949442;28;20214;-69
2023/04/09 12:36:58;;;;;;;10.77;7.53;;;;;;;;;;4958797;28;20224;-70
2023/04/09 12:39:24;;;;;;;11.47;7.33;;;;;;;;;;4958613;28;20218;-70
2023/04/09 12:41:54;;;;;;;11.30;7.97;;;;;;;;;;4963966;28;20303;-70
2023/04/09 12:44:20;;;;;;;12.93;8.50;;;;;;;;;;4960757;28;20308;-70
2023/04/09 12:46:47;;;;;;;10.80;7.63;;;;;;;;;;4958213;28;20222;-70
2023/04/09 12:49:13;;;;;;;10.90;7.40;;;;;;;;;;4961462;28;20246;-70
2023/04/09 12:51:40;;;;;;;10.07;6.63;;;;;;;;;;4960817;28;20233;-69
2023/04/09 12:54:08;;;;;;;10.83;7.40;;;;;;;;;;4959347;28;20226;-69
2023/04/09 12:56:34;;;;;;;10.83;7.00;;;;;;;;;;4955870;28;20210;-70
2023/04/09 12:59:00;;;;;;;10.37;6.77;;;;;;;;;;4956515;28;20206;-69
2023/04/09 13:01:30;;;;;;;11.70;7.93;;;;;;;;;;4958048;28;20276;-69
2023/04/09 13:03:56;;;;;;;11.77;7.57;;;;;;;;;;4951506;28;20213;-70
2023/04/09 13:06:23;;;;;;;11.40;7.20;;;;;;;;;;4961329;28;20741;-70
2023/04/09 13:08:49;;;;;;;9.97;7.27;;;;;;;;;;4953919;28;20222;-69
2023/04/09 13:11:16;;;;;;;12.47;8.10;;;;;;;;;;4942938;28;20214;-70
2023/04/09 13:13:43;;;;;;;12.53;8.13;;;;;;;;;;4945119;28;20224;-69
2023/04/09 13:16:09;;;;;;;10.93;7.63;;;;;;;;;;4944570;28;20684;-70
2023/04/09 13:18:36;;;;;;;11.27;8.03;;;;;;;;;;4942534;28;20233;-70
2023/04/09 13:21:06;;;;;;;12.07;7.63;;;;;;;;;;4947945;28;20206;-69
2023/04/09 13:23:33;;;;;;;12.17;8.23;;;;;;;;;;4946911;28;20209;-70
2023/04/09 13:26:00;;;;;;;11.60;8.30;;;;;;;;;;4947384;28;20208;-71
2023/04/09 13:28:52;;;;;;;11.60;8.30;;;;;;;;;;4938193;28;20719;-70
2023/04/09 13:31:19;;;;;;;11.70;8.07;;;;;;;;;;4949424;28;20284;-70
2023/04/09 13:33:45;;;;;;;13.37;8.90;;;;;;;;;;4961111;28;20871;-69
2023/04/09 13:36:11;;;;;;;12.20;7.87;;;;;;;;;;4949170;28;20682;-70
2023/04/09 13:38:38;;;;;;;11.77;7.90;;;;;;;;;;4947332;28;20331;-70
2023/04/09 13:41:04;;;;;;;11.23;7.40;;;;;;;;;;4948098;28;21050;-70
2023/04/09 13:43:31;;;;;;;11.73;7.53;;;;;;;;;;4955545;28;20234;-71
2023/04/09 13:46:00;;;;;;;10.03;7.07;;;;;;;;;;4948769;28;20213;-70
2023/04/09 13:48:27;;;;;;;8.80;6.13;;;;;;;;;;4954952;28;20228;-69
2023/04/09 13:50:53;;;;;;;10.90;7.67;;;;;;;;;;4948731;28;20760;-69
2023/04/09 13:53:20;;;;;;;10.43;7.07;;;;;;;;;;4942005;28;20771;-69
2023/04/09 13:55:47;;;;;;;9.37;6.03;;;;;;;;;;4948968;28;20213;-70
2023/04/09 13:58:15;;;;;;;10.20;6.67;;;;;;;;;;4947741;28;20238;-70
2023/04/09 14:00:42;;;;;;;8.70;6.50;;;;;;;;;;4952295;28;20208;-69
2023/04/09 14:03:09;;;;;;;8.80;6.40;;;;;;;;;;4953775;28;20838;-71
2023/04/09 14:05:36;;;;;;;9.70;6.73;;;;;;;;;;4953080;28;20267;-70
2023/04/09 14:08:02;;;;;;;9.13;6.23;;;;;;;;;;4957617;28;20679;-70
2023/04/09 14:10:31;;;;;;;9.20;6.87;;;;;;;;;;4944232;28;20332;-70
2023/04/09 14:12:57;;;;;;;9.07;7.00;;;;;;;;;;4948953;28;20714;-71
2023/04/09 14:15:23;;;;;;;11.47;6.97;;;;;;;;;;4952268;28;20253;-71
2023/04/09 14:17:49;;;;;;;10.83;7.47;;;;;;;;;;4952256;28;20228;-70
2023/04/09 14:20:18;;;;;;;12.10;6.80;;;;;;;;;;4949580;28;20204;-69
2023/04/09 14:22:48;;;;;;;9.43;6.90;;;;;;;;;;4951292;28;20217;-70
2023/04/09 14:25:14;;;;;;;9.40;6.77;;;;;;;;;;4952582;28;20210;-69